sensor_id;sensor_type;location;lat;lon;timestamp;temperature;humidity
7814;DHT22;3952;48.364;16.022;2023-04-16T00:02:30;6.60;99.90
7814;DHT22;3952;48.364;16.022;2023-04-16T00:04:57;6.60;99.90
7814;DHT22;3952;48.364;16.022;2023-04-16T00:07:24;6.50;99.90
7814;DHT22;3952;48.364;16.022;2023-04-16T00:09:51;6.50;99.90
7814;DHT22;3952;48.364;16.022;2023-04-16T00:12:18;6.50;99.90
7814;DHT22;3952;48.364;16.022;2023-04-16T00:14:46;6.50;99.90
7814;DHT22;3952;48.364;16.022;2023-04-16T00:17:13;6.50;99.90
7814;DHT22;3952;48.364;16.022;2023-04-16T00:19:42;6.40;99.90
7814;DHT22;3952;48.364;16.022;2023-04-16T00:22:09;6.30;99.90
7814;DHT22;3952;48.364;16.022;2023-04-16T00:24:37;6.30;99.90
7814;DHT22;3952;48.364;16.022;2023-04-16T00:27:04;6.30;99.90
7814;DHT22;3952;48.364;16.022;2023-04-16T00:29:32;6.20;99.90
7814;DHT22;3952;48.364;16.022;2023-04-16T00:32:00;6.20;99.90
7814;DHT22;3952;48.364;16.022;2023-04-16T00:34:27;6.20;99.90
7814;DHT22;3952;48.364;16.022;2023-04-16T00:36:55;6.20;99.90
7814;DHT22;3952;48.364;16.022;2023-04-16T00:39:23;6.20;99.90
7814;DHT22;3952;48.364;16.022;2023-04-16T00:41:50;6.30;99.90
7814;DHT22;3952;48.364;16.022;2023-04-16T00:44:17;6.20;99.90
7814;DHT22;3952;48.364;16.022;2023-04-16T00:46:47;6.30;99.90
7814;DHT22;3952;48.364;16.022;2023-04-16T00:49:15;6.30;99.90
7814;DHT22;3952;48.364;16.022;2023-04-16T00:51:42;6.30;99.90
7814;DHT22;3952;48.364;16.022;2023-04-16T00:54:11;6.30;99.90
7814;DHT22;3952;48.364;16.022;2023-04-16T00:56:39;6.30;99.90
7814;DHT22;3952;48.364;16.022;2023-04-16T00:59:06;6.30;99.90
7814;DHT22;3952;48.364;16.022;2023-04-16T01:01:34;6.30;99.90
7814;DHT22;3952;48.364;16.022;2023-04-16T01:04:01;6.20;99.90
7814;DHT22;3952;48.364;16.022;2023-04-16T01:06:29;6.20;99.90
7814;DHT22;3952;48.364;16.022;2023-04-16T01:08:57;6.20;99.90
7814;DHT22;3952;48.364;16.022;2023-04-16T01:11:25;6.20;99.90
7814;DHT22;3952;48.364;16.022;2023-04-16T01:13:52;6.20;99.90
7814;DHT22;3952;48.364;16.022;2023-04-16T01:16:20;6.20;99.90
7814;DHT22;3952;48.364;16.022;2023-04-16T01:18:47;6.20;99.90
7814;DHT22;3952;48.364;16.022;2023-04-16T01:21:15;6.20;99.90
7814;DHT22;3952;48.364;16.022;2023-04-16T01:23:43;6.30;99.90
7814;DHT22;3952;48.364;16.022;2023-04-16T01:26:10;6.20;99.90
7814;DHT22;3952;48.364;16.022;2023-04-16T01:28:37;6.30;99.90
7814;DHT22;3952;48.364;16.022;2023-04-16T01:31:04;6.30;99.90
7814;DHT22;3952;48.364;16.022;2023-04-16T01:33:31;6.30;99.90
7814;DHT22;3952;48.364;16.022;2023-04-16T01:35:59;6.30;99.90
7814;DHT22;3952;48.364;16.022;2023-04-16T01:38:27;6.30;99.90
7814;DHT22;3952;48.364;16.022;2023-04-16T01:40:56;6.30;99.90
7814;DHT22;3952;48.364;16.022;2023-04-16T01:43:24;6.30;99.90
7814;DHT22;3952;48.364;16.022;2023-04-16T01:45:52;6.30;99.90
7814;DHT22;3952;48.364;16.022;2023-04-16T01:48:23;6.30;99.90
7814;DHT22;3952;48.364;16.022;2023-04-16T01:50:50;6.30;99.90
7814;DHT22;3952;48.364;16.022;2023-04-16T01:53:18;6.30;99.90
7814;DHT22;3952;48.364;16.022;2023-04-16T01:55:46;6.40;99.90
7814;DHT22;3952;48.364;16.022;2023-04-16T01:58:13;6.40;99.90
7814;DHT22;3952;48.364;16.022;2023-04-16T02:00:41;6.40;99.90
7814;DHT22;3952;48.364;16.022;2023-04-16T02:03:09;6.40;99.90
7814;DHT22;3952;48.364;16.022;2023-04-16T02:05:36;6.50;99.90
7814;DHT22;3952;48.364;16.022;2023-04-16T02:08:03;6.50;99.90
7814;DHT22;3952;48.364;16.022;2023-04-16T02:10:31;6.50;99.90
7814;DHT22;3952;48.364;16.022;2023-04-16T02:12:59;6.40;99.90
7814;DHT22;3952;48.364;16.022;2023-04-16T02:15:26;6.40;99.90
7814;DHT22;3952;48.364;16.022;2023-04-16T02:17:53;6.40;99.90
7814;DHT22;3952;48.364;16.022;2023-04-16T02:20:21;6.40;99.90
7814;DHT22;3952;48.364;16.022;2023-04-16T02:22:48;6.40;99.90
7814;DHT22;3952;48.364;16.022;2023-04-16T02:25:16;6.40;99.90
7814;DHT22;3952;48.364;16.022;2023-04-16T02:27:43;6.40;99.90
7814;DHT22;3952;48.364;16.022;2023-04-16T02:30:12;6.40;99.90
7814;DHT22;3952;48.364;16.022;2023-04-16T02:32:39;6.40;99.90
7814;DHT22;3952;48.364;16.022;2023-04-16T02:35:07;6.40;99.90
7814;DHT22;3952;48.364;16.022;2023-04-16T02:37:34;6.40;99.90
7814;DHT22;3952;48.364;16.022;2023-04-16T02:40:01;6.40;99.90
7814;DHT22;3952;48.364;16.022;2023-04-16T02:42:28;6.40;99.90
7814;DHT22;3952;48.364;16.022;2023-04-16T02:44:55;6.40;99.90
7814;DHT22;3952;48.364;16.022;2023-04-16T02:47:24;6.50;99.90
7814;DHT22;3952;48.364;16.022;2023-04-16T02:49:51;6.50;99.90
7814;DHT22;3952;48.364;16.022;2023-04-16T02:52:18;6.50;99.90
7814;DHT22;3952;48.364;16.022;2023-04-16T02:54:45;6.50;99.90
7814;DHT22;3952;48.364;16.022;2023-04-16T02:57:13;6.50;99.90
7814;DHT22;3952;48.364;16.022;2023-04-16T02:59:40;6.50;99.90
7814;DHT22;3952;48.364;16.022;2023-04-16T03:02:07;6.50;99.90
7814;DHT22;3952;48.364;16.022;2023-04-16T03:04:35;6.50;99.90
7814;DHT22;3952;48.364;16.022;2023-04-16T03:07:03;6.50;99.90
7814;DHT22;3952;48.364;16.022;2023-04-16T03:09:30;6.50;99.90
7814;DHT22;3952;48.364;16.022;2023-04-16T03:11:57;6.50;99.90
7814;DHT22;3952;48.364;16.022;2023-04-16T03:14:26;6.50;99.90
7814;DHT22;3952;48.364;16.022;2023-04-16T03:16:53;6.50;99.90
7814;DHT22;3952;48.364;16.022;2023-04-16T03:19:20;6.50;99.90
7814;DHT22;3952;48.364;16.022;2023-04-16T03:21:49;6.50;99.90
7814;DHT22;3952;48.364;16.022;2023-04-16T03:24:16;6.50;99.90
7814;DHT22;3952;48.364;16.022;2023-04-16T03:26:43;6.50;99.90
7814;DHT22;3952;48.364;16.022;2023-04-16T03:29:10;6.50;99.90
7814;DHT22;3952;48.364;16.022;2023-04-16T03:31:38;6.50;99.90
7814;DHT22;3952;48.364;16.022;2023-04-16T03:34:06;6.40;99.90
7814;DHT22;3952;48.364;16.022;2023-04-16T03:36:33;6.40;99.90
7814;DHT22;3952;48.364;16.022;2023-04-16T03:39:02;6.40;99.90
7814;DHT22;3952;48.364;16.022;2023-04-16T03:41:29;6.40;99.90
7814;DHT22;3952;48.364;16.022;2023-04-16T03:43:56;6.40;99.90
7814;DHT22;3952;48.364;16.022;2023-04-16T03:46:23;6.40;99.90
7814;DHT22;3952;48.364;16.022;2023-04-16T03:48:50;6.30;99.90
7814;DHT22;3952;48.364;16.022;2023-04-16T03:51:18;6.30;99.90
7814;DHT22;3952;48.364;16.022;2023-04-16T03:53:45;6.30;99.90
7814;DHT22;3952;48.364;16.022;2023-04-16T03:56:13;6.30;99.90
7814;DHT22;3952;48.364;16.022;2023-04-16T03:58:40;6.40;99.90
7814;DHT22;3952;48.364;16.022;2023-04-16T04:01:08;6.40;99.90
7814;DHT22;3952;48.364;16.022;2023-04-16T04:03:35;6.40;99.90
7814;DHT22;3952;48.364;16.022;2023-04-16T04:06:06;6.40;99.90
7814;DHT22;3952;48.364;16.022;2023-04-16T04:08:33;6.30;99.90
7814;DHT22;3952;48.364;16.022;2023-04-16T04:11:00;6.30;99.90
7814;DHT22;3952;48.364;16.022;2023-04-16T04:13:29;6.40;99.90
7814;DHT22;3952;48.364;16.022;2023-04-16T04:15:56;6.40;99.90
7814;DHT22;3952;48.364;16.022;2023-04-16T04:18:23;6.40;99.90
7814;DHT22;3952;48.364;16.022;2023-04-16T04:20:50;6.40;99.90
7814;DHT22;3952;48.364;16.022;2023-04-16T04:23:18;6.40;99.90
7814;DHT22;3952;48.364;16.022;2023-04-16T04:25:45;6.50;99.90
7814;DHT22;3952;48.364;16.022;2023-04-16T04:28:12;6.40;99.90
7814;DHT22;3952;48.364;16.022;2023-04-16T04:30:41;6.50;99.90
7814;DHT22;3952;48.364;16.022;2023-04-16T04:33:08;6.50;99.90
7814;DHT22;3952;48.364;16.022;2023-04-16T04:35:35;6.50;99.90
7814;DHT22;3952;48.364;16.022;2023-04-16T04:38:02;6.50;99.90
7814;DHT22;3952;48.364;16.022;2023-04-16T04:40:30;6.50;99.90
7814;DHT22;3952;48.364;16.022;2023-04-16T04:42:57;6.50;99.90
7814;DHT22;3952;48.364;16.022;2023-04-16T04:45:24;6.40;99.90
7814;DHT22;3952;48.364;16.022;2023-04-16T04:47:53;6.40;99.90
7814;DHT22;3952;48.364;16.022;2023-04-16T04:50:20;6.40;99.90
7814;DHT22;3952;48.364;16.022;2023-04-16T04:52:47;6.30;99.90
7814;DHT22;3952;48.364;16.022;2023-04-16T04:55:15;6.30;99.90
7814;DHT22;3952;48.364;16.022;2023-04-16T04:57:42;6.30;99.90
7814;DHT22;3952;48.364;16.022;2023-04-16T05:00:10;6.30;99.90
7814;DHT22;3952;48.364;16.022;2023-04-16T05:02:37;6.30;99.90
7814;DHT22;3952;48.364;16.022;2023-04-16T05:05:07;6.30;99.90
7814;DHT22;3952;48.364;16.022;2023-04-16T05:07:34;6.30;99.90
7814;DHT22;3952;48.364;16.022;2023-04-16T05:10:01;6.30;99.90
7814;DHT22;3952;48.364;16.022;2023-04-16T05:12:28;6.30;99.90
7814;DHT22;3952;48.364;16.022;2023-04-16T05:14:55;6.30;99.90
7814;DHT22;3952;48.364;16.022;2023-04-16T05:17:23;6.40;99.90
7814;DHT22;3952;48.364;16.022;2023-04-16T05:19:51;6.40;99.90
7814;DHT22;3952;48.364;16.022;2023-04-16T05:22:20;6.40;99.90
7814;DHT22;3952;48.364;16.022;2023-04-16T05:24:47;6.50;99.90
7814;DHT22;3952;48.364;16.022;2023-04-16T05:27:14;6.50;99.90
7814;DHT22;3952;48.364;16.022;2023-04-16T05:29:41;6.50;99.90
7814;DHT22;3952;48.364;16.022;2023-04-16T05:32:08;6.60;99.90
7814;DHT22;3952;48.364;16.022;2023-04-16T05:34:35;6.60;99.90
7814;DHT22;3952;48.364;16.022;2023-04-16T05:37:03;6.60;99.90
7814;DHT22;3952;48.364;16.022;2023-04-16T05:39:31;6.70;99.90
7814;DHT22;3952;48.364;16.022;2023-04-16T05:41:58;6.70;99.90
7814;DHT22;3952;48.364;16.022;2023-04-16T05:44:26;6.80;99.90
7814;DHT22;3952;48.364;16.022;2023-04-16T05:46:53;6.80;99.90
7814;DHT22;3952;48.364;16.022;2023-04-16T05:49:20;6.90;99.90
7814;DHT22;3952;48.364;16.022;2023-04-16T05:51:47;6.90;99.90
7814;DHT22;3952;48.364;16.022;2023-04-16T05:54:15;7.00;99.90
7814;DHT22;3952;48.364;16.022;2023-04-16T05:56:43;7.00;99.90
7814;DHT22;3952;48.364;16.022;2023-04-16T05:59:10;7.00;99.90
7814;DHT22;3952;48.364;16.022;2023-04-16T06:01:37;7.00;99.90
7814;DHT22;3952;48.364;16.022;2023-04-16T06:04:05;7.10;99.90
7814;DHT22;3952;48.364;16.022;2023-04-16T06:06:32;7.10;99.90
7814;DHT22;3952;48.364;16.022;2023-04-16T06:08:59;7.10;99.90
7814;DHT22;3952;48.364;16.022;2023-04-16T06:11:26;7.20;99.90
7814;DHT22;3952;48.364;16.022;2023-04-16T06:13:56;7.20;99.90
7814;DHT22;3952;48.364;16.022;2023-04-16T06:16:23;7.20;99.90
7814;DHT22;3952;48.364;16.022;2023-04-16T06:18:51;7.30;99.90
7814;DHT22;3952;48.364;16.022;2023-04-16T06:21:18;7.30;99.90
7814;DHT22;3952;48.364;16.022;2023-04-16T06:23:45;7.40;99.90
7814;DHT22;3952;48.364;16.022;2023-04-16T06:26:12;7.50;99.90
7814;DHT22;3952;48.364;16.022;2023-04-16T06:28:39;7.50;99.90
7814;DHT22;3952;48.364;16.022;2023-04-16T06:31:08;7.60;99.90
7814;DHT22;3952;48.364;16.022;2023-04-16T06:33:35;7.70;99.90
7814;DHT22;3952;48.364;16.022;2023-04-16T06:36:02;7.70;99.90
7814;DHT22;3952;48.364;16.022;2023-04-16T06:38:30;7.80;99.90
7814;DHT22;3952;48.364;16.022;2023-04-16T06:40:57;7.80;99.90
7814;DHT22;3952;48.364;16.022;2023-04-16T06:43:25;7.90;99.90
7814;DHT22;3952;48.364;16.022;2023-04-16T06:45:52;7.90;99.90
7814;DHT22;3952;48.364;16.022;2023-04-16T06:48:21;8.00;99.90
7814;DHT22;3952;48.364;16.022;2023-04-16T06:50:48;8.00;99.90
7814;DHT22;3952;48.364;16.022;2023-04-16T06:53:15;8.10;99.90
7814;DHT22;3952;48.364;16.022;2023-04-16T06:55:42;8.20;99.90
7814;DHT22;3952;48.364;16.022;2023-04-16T06:58:09;8.20;99.90
7814;DHT22;3952;48.364;16.022;2023-04-16T07:00:37;8.20;99.90
7814;DHT22;3952;48.364;16.022;2023-04-16T07:03:04;8.20;99.90
7814;DHT22;3952;48.364;16.022;2023-04-16T07:05:32;8.30;99.90
7814;DHT22;3952;48.364;16.022;2023-04-16T07:08:00;8.40;99.90
7814;DHT22;3952;48.364;16.022;2023-04-16T07:10:27;8.40;99.90
7814;DHT22;3952;48.364;16.022;2023-04-16T07:12:54;8.40;99.90
7814;DHT22;3952;48.364;16.022;2023-04-16T07:15:21;8.50;99.90
7814;DHT22;3952;48.364;16.022;2023-04-16T07:17:49;8.60;99.90
7814;DHT22;3952;48.364;16.022;2023-04-16T07:20:16;8.60;99.90
7814;DHT22;3952;48.364;16.022;2023-04-16T07:22:44;8.60;99.90
7814;DHT22;3952;48.364;16.022;2023-04-16T07:25:12;8.60;99.90
7814;DHT22;3952;48.364;16.022;2023-04-16T07:27:39;8.60;99.90
7814;DHT22;3952;48.364;16.022;2023-04-16T07:30:07;8.70;99.90
7814;DHT22;3952;48.364;16.022;2023-04-16T07:32:35;8.70;99.90
7814;DHT22;3952;48.364;16.022;2023-04-16T07:35:02;8.70;99.90
7814;DHT22;3952;48.364;16.022;2023-04-16T07:37:29;8.70;99.90
7814;DHT22;3952;48.364;16.022;2023-04-16T07:39:58;8.80;99.90
7814;DHT22;3952;48.364;16.022;2023-04-16T07:42:25;8.90;99.90
7814;DHT22;3952;48.364;16.022;2023-04-16T07:44:54;9.00;99.90
7814;DHT22;3952;48.364;16.022;2023-04-16T07:47:21;9.10;99.90
7814;DHT22;3952;48.364;16.022;2023-04-16T07:49:51;9.20;99.90
7814;DHT22;3952;48.364;16.022;2023-04-16T07:52:18;9.30;99.90
7814;DHT22;3952;48.364;16.022;2023-04-16T07:54:45;9.30;99.90
7814;DHT22;3952;48.364;16.022;2023-04-16T07:57:14;9.40;99.90
7814;DHT22;3952;48.364;16.022;2023-04-16T07:59:41;9.50;99.90
7814;DHT22;3952;48.364;16.022;2023-04-16T08:02:09;9.60;99.90
7814;DHT22;3952;48.364;16.022;2023-04-16T08:04:39;9.70;99.90
7814;DHT22;3952;48.364;16.022;2023-04-16T08:07:06;9.80;99.90
7814;DHT22;3952;48.364;16.022;2023-04-16T08:09:34;9.90;99.90
7814;DHT22;3952;48.364;16.022;2023-04-16T08:12:02;9.90;99.90
7814;DHT22;3952;48.364;16.022;2023-04-16T08:14:30;10.00;99.90
7814;DHT22;3952;48.364;16.022;2023-04-16T08:16:57;10.00;99.90
7814;DHT22;3952;48.364;16.022;2023-04-16T08:19:25;9.90;99.90
7814;DHT22;3952;48.364;16.022;2023-04-16T08:21:52;10.00;99.90
7814;DHT22;3952;48.364;16.022;2023-04-16T08:24:20;10.10;99.90
7814;DHT22;3952;48.364;16.022;2023-04-16T08:26:47;10.10;99.90
7814;DHT22;3952;48.364;16.022;2023-04-16T08:29:14;10.20;99.90
7814;DHT22;3952;48.364;16.022;2023-04-16T08:31:43;10.30;99.90
7814;DHT22;3952;48.364;16.022;2023-04-16T08:34:10;10.30;99.90
7814;DHT22;3952;48.364;16.022;2023-04-16T08:36:37;10.30;99.90
7814;DHT22;3952;48.364;16.022;2023-04-16T08:39:04;10.40;99.90
7814;DHT22;3952;48.364;16.022;2023-04-16T08:41:33;10.70;99.90
7814;DHT22;3952;48.364;16.022;2023-04-16T08:44:06;10.90;99.90
7814;DHT22;3952;48.364;16.022;2023-04-16T08:46:35;11.00;99.90
7814;DHT22;3952;48.364;16.022;2023-04-16T08:49:06;11.10;99.90
7814;DHT22;3952;48.364;16.022;2023-04-16T08:51:34;11.20;99.90
7814;DHT22;3952;48.364;16.022;2023-04-16T08:54:03;11.30;99.90
7814;DHT22;3952;48.364;16.022;2023-04-16T08:56:31;11.30;99.90
7814;DHT22;3952;48.364;16.022;2023-04-16T08:59:02;11.40;99.90
7814;DHT22;3952;48.364;16.022;2023-04-16T09:01:31;11.70;99.90
7814;DHT22;3952;48.364;16.022;2023-04-16T09:04:00;11.80;99.90
7814;DHT22;3952;48.364;16.022;2023-04-16T09:06:30;11.90;99.90
7814;DHT22;3952;48.364;16.022;2023-04-16T09:08:58;11.90;99.90
7814;DHT22;3952;48.364;16.022;2023-04-16T09:11:29;11.80;99.90
7814;DHT22;3952;48.364;16.022;2023-04-16T09:13:57;11.90;99.90
7814;DHT22;3952;48.364;16.022;2023-04-16T09:16:26;12.00;99.90
7814;DHT22;3952;48.364;16.022;2023-04-16T09:18:55;11.90;99.90
7814;DHT22;3952;48.364;16.022;2023-04-16T09:21:23;11.80;99.90
7814;DHT22;3952;48.364;16.022;2023-04-16T09:23:53;11.80;99.90
7814;DHT22;3952;48.364;16.022;2023-04-16T09:26:21;11.80;99.90
7814;DHT22;3952;48.364;16.022;2023-04-16T09:28:49;11.80;99.90
7814;DHT22;3952;48.364;16.022;2023-04-16T09:31:18;11.90;99.90
7814;DHT22;3952;48.364;16.022;2023-04-16T09:34:00;11.90;99.90
7814;DHT22;3952;48.364;16.022;2023-04-16T09:36:27;12.00;99.90
7814;DHT22;3952;48.364;16.022;2023-04-16T09:38:58;12.10;99.90
7814;DHT22;3952;48.364;16.022;2023-04-16T09:41:26;12.20;99.90
7814;DHT22;3952;48.364;16.022;2023-04-16T09:43:54;12.20;99.90
7814;DHT22;3952;48.364;16.022;2023-04-16T09:46:23;12.20;99.90
7814;DHT22;3952;48.364;16.022;2023-04-16T09:48:50;12.30;99.90
7814;DHT22;3952;48.364;16.022;2023-04-16T09:51:17;12.40;99.90
7814;DHT22;3952;48.364;16.022;2023-04-16T09:53:45;12.60;99.90
7814;DHT22;3952;48.364;16.022;2023-04-16T09:56:13;12.70;99.90
7814;DHT22;3952;48.364;16.022;2023-04-16T09:58:41;12.90;99.90
7814;DHT22;3952;48.364;16.022;2023-04-16T10:01:10;13.00;99.90
7814;DHT22;3952;48.364;16.022;2023-04-16T10:03:38;13.00;99.90
7814;DHT22;3952;48.364;16.022;2023-04-16T10:06:07;12.90;99.90
7814;DHT22;3952;48.364;16.022;2023-04-16T10:08:42;13.00;99.90
7814;DHT22;3952;48.364;16.022;2023-04-16T10:11:10;13.10;99.90
7814;DHT22;3952;48.364;16.022;2023-04-16T10:13:39;13.30;99.90
7814;DHT22;3952;48.364;16.022;2023-04-16T10:16:07;13.50;99.90
7814;DHT22;3952;48.364;16.022;2023-04-16T10:18:36;13.50;99.90
7814;DHT22;3952;48.364;16.022;2023-04-16T10:21:04;13.40;99.90
7814;DHT22;3952;48.364;16.022;2023-04-16T10:23:31;13.40;99.90
7814;DHT22;3952;48.364;16.022;2023-04-16T10:26:00;13.30;99.90
7814;DHT22;3952;48.364;16.022;2023-04-16T10:28:27;13.20;99.90
7814;DHT22;3952;48.364;16.022;2023-04-16T10:30:57;13.10;99.90
7814;DHT22;3952;48.364;16.022;2023-04-16T10:33:26;13.00;99.90
7814;DHT22;3952;48.364;16.022;2023-04-16T10:36:07;12.90;99.90
7814;DHT22;3952;48.364;16.022;2023-04-16T10:38:38;12.90;99.90
7814;DHT22;3952;48.364;16.022;2023-04-16T10:41:07;12.90;99.90
7814;DHT22;3952;48.364;16.022;2023-04-16T10:43:39;12.90;99.90
7814;DHT22;3952;48.364;16.022;2023-04-16T10:46:21;12.80;99.90
7814;DHT22;3952;48.364;16.022;2023-04-16T10:48:51;12.80;99.90
7814;DHT22;3952;48.364;16.022;2023-04-16T10:51:28;12.80;99.90
7814;DHT22;3952;48.364;16.022;2023-04-16T10:53:56;12.80;99.90
7814;DHT22;3952;48.364;16.022;2023-04-16T10:56:24;12.80;99.90
7814;DHT22;3952;48.364;16.022;2023-04-16T10:58:53;12.70;99.90
7814;DHT22;3952;48.364;16.022;2023-04-16T11:01:29;12.70;99.90
7814;DHT22;3952;48.364;16.022;2023-04-16T11:04:01;12.70;99.90
7814;DHT22;3952;48.364;16.022;2023-04-16T11:07:00;12.70;99.90
7814;DHT22;3952;48.364;16.022;2023-04-16T11:09:58;12.70;99.90
7814;DHT22;3952;48.364;16.022;2023-04-16T11:12:33;12.70;99.90
7814;DHT22;3952;48.364;16.022;2023-04-16T11:15:03;12.70;99.90
7814;DHT22;3952;48.364;16.022;2023-04-16T11:17:36;12.80;99.90
7814;DHT22;3952;48.364;16.022;2023-04-16T11:20:05;12.80;99.90
7814;DHT22;3952;48.364;16.022;2023-04-16T11:22:34;12.80;99.90
7814;DHT22;3952;48.364;16.022;2023-04-16T11:25:02;12.90;99.90
7814;DHT22;3952;48.364;16.022;2023-04-16T11:27:30;13.00;99.90
7814;DHT22;3952;48.364;16.022;2023-04-16T11:30:00;13.10;99.90
7814;DHT22;3952;48.364;16.022;2023-04-16T11:32:32;13.30;99.90
7814;DHT22;3952;48.364;16.022;2023-04-16T11:35:01;13.30;99.90
7814;DHT22;3952;48.364;16.022;2023-04-16T11:37:34;13.40;99.90
7814;DHT22;3952;48.364;16.022;2023-04-16T11:40:02;13.60;99.90
7814;DHT22;3952;48.364;16.022;2023-04-16T11:42:31;13.70;99.90
7814;DHT22;3952;48.364;16.022;2023-04-16T11:45:02;13.90;99.90
7814;DHT22;3952;48.364;16.022;2023-04-16T11:47:31;14.00;99.90
7814;DHT22;3952;48.364;16.022;2023-04-16T11:50:17;14.20;99.90
7814;DHT22;3952;48.364;16.022;2023-04-16T11:52:45;14.40;99.90
7814;DHT22;3952;48.364;16.022;2023-04-16T11:55:13;14.50;99.90
7814;DHT22;3952;48.364;16.022;2023-04-16T11:57:40;14.60;99.90
7814;DHT22;3952;48.364;16.022;2023-04-16T12:00:08;14.60;99.90
7814;DHT22;3952;48.364;16.022;2023-04-16T12:02:40;14.60;99.90
7814;DHT22;3952;48.364;16.022;2023-04-16T12:05:27;14.70;99.90
7814;DHT22;3952;48.364;16.022;2023-04-16T12:07:55;14.90;99.90
7814;DHT22;3952;48.364;16.022;2023-04-16T12:10:23;14.90;99.90
7814;DHT22;3952;48.364;16.022;2023-04-16T12:12:50;14.90;99.90
7814;DHT22;3952;48.364;16.022;2023-04-16T12:15:17;14.90;99.90
7814;DHT22;3952;48.364;16.022;2023-04-16T12:17:46;14.70;99.90
7814;DHT22;3952;48.364;16.022;2023-04-16T12:20:15;14.60;99.90
7814;DHT22;3952;48.364;16.022;2023-04-16T12:22:44;14.60;99.90
7814;DHT22;3952;48.364;16.022;2023-04-16T12:25:13;14.50;99.90
7814;DHT22;3952;48.364;16.022;2023-04-16T12:27:42;14.40;99.90
7814;DHT22;3952;48.364;16.022;2023-04-16T12:30:12;14.30;99.90
7814;DHT22;3952;48.364;16.022;2023-04-16T12:32:40;14.20;99.90
7814;DHT22;3952;48.364;16.022;2023-04-16T12:35:09;13.90;99.90
7814;DHT22;3952;48.364;16.022;2023-04-16T12:37:37;13.80;99.90
7814;DHT22;3952;48.364;16.022;2023-04-16T12:40:06;13.70;99.90
7814;DHT22;3952;48.364;16.022;2023-04-16T12:42:33;13.70;99.90
7814;DHT22;3952;48.364;16.022;2023-04-16T12:45:02;13.60;99.90
7814;DHT22;3952;48.364;16.022;2023-04-16T12:47:30;13.60;99.90
7814;DHT22;3952;48.364;16.022;2023-04-16T12:49:57;13.60;99.90
7814;DHT22;3952;48.364;16.022;2023-04-16T12:52:27;13.70;99.90
7814;DHT22;3952;48.364;16.022;2023-04-16T12:54:54;13.70;99.90
7814;DHT22;3952;48.364;16.022;2023-04-16T12:57:21;13.80;99.90
7814;DHT22;3952;48.364;16.022;2023-04-16T12:59:53;13.80;99.90
7814;DHT22;3952;48.364;16.022;2023-04-16T13:02:21;13.80;99.90
7814;DHT22;3952;48.364;16.022;2023-04-16T13:04:49;13.80;99.90
7814;DHT22;3952;48.364;16.022;2023-04-16T13:07:16;13.90;99.90
7814;DHT22;3952;48.364;16.022;2023-04-16T13:09:45;13.80;99.90
7814;DHT22;3952;48.364;16.022;2023-04-16T13:12:13;13.90;99.90
7814;DHT22;3952;48.364;16.022;2023-04-16T13:14:40;13.90;99.90
7814;DHT22;3952;48.364;16.022;2023-04-16T13:17:07;13.90;99.90
7814;DHT22;3952;48.364;16.022;2023-04-16T13:19:34;13.90;99.90
7814;DHT22;3952;48.364;16.022;2023-04-16T13:22:02;14.00;99.90
7814;DHT22;3952;48.364;16.022;2023-04-16T13:24:29;14.00;99.90
7814;DHT22;3952;48.364;16.022;2023-04-16T13:26:58;14.10;99.90
7814;DHT22;3952;48.364;16.022;2023-04-16T13:29:25;14.10;99.90
7814;DHT22;3952;48.364;16.022;2023-04-16T13:31:52;14.10;99.90
7814;DHT22;3952;48.364;16.022;2023-04-16T13:34:19;14.20;99.90
7814;DHT22;3952;48.364;16.022;2023-04-16T13:36:46;14.20;99.90
7814;DHT22;3952;48.364;16.022;2023-04-16T13:39:14;14.30;99.90
7814;DHT22;3952;48.364;16.022;2023-04-16T13:41:42;14.20;99.90
7814;DHT22;3952;48.364;16.022;2023-04-16T13:44:10;14.30;99.90
7814;DHT22;3952;48.364;16.022;2023-04-16T13:46:38;14.40;99.90
7814;DHT22;3952;48.364;16.022;2023-04-16T13:49:05;14.50;99.90
7814;DHT22;3952;48.364;16.022;2023-04-16T13:51:33;14.70;99.90
7814;DHT22;3952;48.364;16.022;2023-04-16T13:54:01;14.80;99.90
7814;DHT22;3952;48.364;16.022;2023-04-16T13:56:28;14.70;99.90
7814;DHT22;3952;48.364;16.022;2023-04-16T13:58:55;14.60;99.90
7814;DHT22;3952;48.364;16.022;2023-04-16T14:01:23;14.60;99.90
7814;DHT22;3952;48.364;16.022;2023-04-16T14:03:51;14.50;99.90
7814;DHT22;3952;48.364;16.022;2023-04-16T14:06:18;14.40;99.90
7814;DHT22;3952;48.364;16.022;2023-04-16T14:08:45;14.50;99.90
7814;DHT22;3952;48.364;16.022;2023-04-16T14:11:12;14.50;99.90
7814;DHT22;3952;48.364;16.022;2023-04-16T14:13:39;14.50;99.90
7814;DHT22;3952;48.364;16.022;2023-04-16T14:16:07;14.50;99.90
7814;DHT22;3952;48.364;16.022;2023-04-16T14:18:36;14.50;99.90
7814;DHT22;3952;48.364;16.022;2023-04-16T14:21:06;14.50;99.90
7814;DHT22;3952;48.364;16.022;2023-04-16T14:23:34;14.70;99.90
7814;DHT22;3952;48.364;16.022;2023-04-16T14:26:02;14.70;99.90
7814;DHT22;3952;48.364;16.022;2023-04-16T14:28:29;14.70;99.90
7814;DHT22;3952;48.364;16.022;2023-04-16T14:30:56;14.80;99.90
7814;DHT22;3952;48.364;16.022;2023-04-16T14:33:23;14.70;99.90
7814;DHT22;3952;48.364;16.022;2023-04-16T14:35:52;14.80;99.90
7814;DHT22;3952;48.364;16.022;2023-04-16T14:38:19;14.70;99.90
7814;DHT22;3952;48.364;16.022;2023-04-16T14:40:47;14.70;99.90
7814;DHT22;3952;48.364;16.022;2023-04-16T14:43:15;14.60;99.90
7814;DHT22;3952;48.364;16.022;2023-04-16T14:45:42;14.60;99.90
7814;DHT22;3952;48.364;16.022;2023-04-16T14:48:09;14.60;99.90
7814;DHT22;3952;48.364;16.022;2023-04-16T14:50:36;14.50;99.90
7814;DHT22;3952;48.364;16.022;2023-04-16T14:53:10;14.50;99.90
7814;DHT22;3952;48.364;16.022;2023-04-16T14:55:37;14.40;99.90
7814;DHT22;3952;48.364;16.022;2023-04-16T14:58:04;14.40;99.90
7814;DHT22;3952;48.364;16.022;2023-04-16T15:00:33;14.40;99.90
7814;DHT22;3952;48.364;16.022;2023-04-16T15:03:01;14.50;99.90
7814;DHT22;3952;48.364;16.022;2023-04-16T15:05:29;14.50;99.90
7814;DHT22;3952;48.364;16.022;2023-04-16T15:07:56;14.40;99.90
7814;DHT22;3952;48.364;16.022;2023-04-16T15:10:25;14.40;99.90
7814;DHT22;3952;48.364;16.022;2023-04-16T15:12:52;14.50;99.90
7814;DHT22;3952;48.364;16.022;2023-04-16T15:15:19;14.40;99.90
7814;DHT22;3952;48.364;16.022;2023-04-16T15:17:46;14.40;99.90
7814;DHT22;3952;48.364;16.022;2023-04-16T15:20:15;14.30;99.90
7814;DHT22;3952;48.364;16.022;2023-04-16T15:22:42;14.30;99.90
7814;DHT22;3952;48.364;16.022;2023-04-16T15:25:09;14.30;99.90
7814;DHT22;3952;48.364;16.022;2023-04-16T15:27:38;14.30;99.90
7814;DHT22;3952;48.364;16.022;2023-04-16T15:30:06;14.30;99.90
7814;DHT22;3952;48.364;16.022;2023-04-16T15:32:34;14.30;99.90
7814;DHT22;3952;48.364;16.022;2023-04-16T15:35:01;14.20;99.90
7814;DHT22;3952;48.364;16.022;2023-04-16T15:37:29;14.20;99.90
7814;DHT22;3952;48.364;16.022;2023-04-16T15:39:56;14.10;99.90
7814;DHT22;3952;48.364;16.022;2023-04-16T15:42:24;13.90;99.90
7814;DHT22;3952;48.364;16.022;2023-04-16T15:44:53;13.90;99.90
7814;DHT22;3952;48.364;16.022;2023-04-16T15:47:20;13.80;99.90
7814;DHT22;3952;48.364;16.022;2023-04-16T15:49:48;13.80;99.90
7814;DHT22;3952;48.364;16.022;2023-04-16T15:52:15;13.70;99.90
7814;DHT22;3952;48.364;16.022;2023-04-16T15:54:44;13.60;99.90
7814;DHT22;3952;48.364;16.022;2023-04-16T15:57:12;13.60;99.90
7814;DHT22;3952;48.364;16.022;2023-04-16T15:59:39;13.50;99.90
7814;DHT22;3952;48.364;16.022;2023-04-16T16:02:07;13.50;99.90